Time;durP1;ratioP1;P1;durP2;ratioP2;P2;SDS_P1;SDS_P2;PMS_P1;PMS_P2;Temp;Humidity;BMP_temperature;BMP_pressure;BME280_temperature;BME280_humidity;BME280_pressure;Samples;Min_cycle;Max_cycle;Signal;HPM_P1;HPM_P2
2021/11/11 00:01:53;;;;;;;29.08;15.60;;;1.70;99.90;;;;;;5046372;28;20029;-57
2021/11/11 00:04:20;;;;;;;33.63;15.82;;;1.80;99.90;;;;;;5041312;28;20025;-57
2021/11/11 00:06:47;;;;;;;33.03;15.57;;;1.80;99.90;;;;;;5002940;28;20049;-59
2021/11/11 00:09:13;;;;;;;28.42;15.18;;;1.80;99.90;;;;;;5051589;28;20037;-55
2021/11/11 00:11:40;;;;;;;32.78;15.32;;;1.70;99.90;;;;;;5033250;28;20048;-57
2021/11/11 00:14:06;;;;;;;25.80;13.25;;;1.60;99.90;;;;;;5048849;28;20047;-57
2021/11/11 00:16:32;;;;;;;25.15;14.07;;;1.60;99.90;;;;;;5050118;28;20041;-55
2021/11/11 00:18:58;;;;;;;28.75;14.43;;;1.50;99.90;;;;;;5048156;28;20033;-56
2021/11/11 00:21:23;;;;;;;27.35;14.88;;;1.50;99.90;;;;;;5043217;28;20037;-56
2021/11/11 00:23:49;;;;;;;27.50;14.80;;;1.50;99.90;;;;;;5044038;28;20517;-57
2021/11/11 00:26:14;;;;;;;29.17;15.07;;;1.50;99.90;;;;;;5046749;28;20513;-58
2021/11/11 00:28:40;;;;;;;31.35;15.27;;;1.60;99.90;;;;;;5049271;28;20421;-59
2021/11/11 00:31:05;;;;;;;31.10;15.38;;;1.60;99.90;;;;;;5041775;28;20040;-59
2021/11/11 00:33:31;;;;;;;25.58;14.10;;;1.50;99.90;;;;;;5050445;28;20036;-58
2021/11/11 00:35:57;;;;;;;31.08;15.50;;;1.40;99.90;;;;;;5047468;28;20039;-57
2021/11/11 00:38:22;;;;;;;31.92;14.50;;;1.30;99.90;;;;;;5049293;28;20037;-56
2021/11/11 00:40:48;;;;;;;25.33;13.20;;;1.30;99.90;;;;;;5045150;28;20021;-58
2021/11/11 00:43:14;;;;;;;33.28;14.75;;;1.30;99.90;;;;;;5038408;28;20038;-57
2021/11/11 00:45:39;;;;;;;28.88;13.55;;;1.20;99.90;;;;;;5043006;28;20132;-54
2021/11/11 00:48:07;;;;;;;25.85;13.52;;;1.20;99.90;;;;;;5044165;28;20360;-60
2021/11/11 00:50:34;;;;;;;31.50;14.73;;;1.10;99.90;;;;;;5044137;28;20032;-58
2021/11/11 00:53:01;;;;;;;34.08;14.15;;;1.00;99.90;;;;;;5041316;28;20083;-59
2021/11/11 00:55:27;;;;;;;29.77;14.88;;;0.90;99.90;;;;;;5014329;28;20044;-58
2021/11/11 00:57:53;;;;;;;25.58;14.65;;;0.90;99.90;;;;;;5047680;28;20515;-59
2021/11/11 01:00:20;;;;;;;28.52;14.60;;;0.80;99.90;;;;;;5029505;28;20024;-58
2021/11/11 01:02:47;;;;;;;28.08;15.18;;;0.80;99.90;;;;;;5028202;28;20033;-56
2021/11/11 01:05:14;;;;;;;29.90;16.27;;;0.80;99.90;;;;;;5045743;28;20055;-56
2021/11/11 01:07:40;;;;;;;26.95;15.07;;;0.80;99.90;;;;;;5047963;28;20025;-57
2021/11/11 01:10:12;;;;;;;31.38;14.63;;;0.70;99.90;;;;;;5024694;28;20053;-59
2021/11/11 01:12:38;;;;;;;38.85;16.52;;;0.60;99.90;;;;;;5048589;28;20064;-60
2021/11/11 01:15:07;;;;;;;34.30;16.83;;;0.60;99.90;;;;;;5041829;28;20547;-60
2021/11/11 01:17:33;;;;;;;39.58;18.85;;;0.50;99.90;;;;;;5048297;28;20036;-58
2021/11/11 01:19:59;;;;;;;40.20;17.42;;;0.60;99.90;;;;;;5042675;28;20033;-58
2021/11/11 01:22:24;;;;;;;37.38;19.30;;;0.60;99.90;;;;;;5042024;28;20478;-58
2021/11/11 01:24:50;;;;;;;39.78;19.23;;;0.60;99.90;;;;;;5043104;28;20021;-59
2021/11/11 01:27:16;;;;;;;33.17;17.58;;;0.60;99.90;;;;;;5045138;28;20473;-60
2021/11/11 01:29:42;;;;;;;35.67;17.52;;;0.60;99.90;;;;;;5043611;28;20040;-60
2021/11/11 01:32:08;;;;;;;35.35;18.23;;;0.60;99.90;;;;;;5043108;28;20044;-59
2021/11/11 01:34:33;;;;;;;38.10;17.65;;;0.60;99.90;;;;;;5037374;28;20025;-58
2021/11/11 01:36:59;;;;;;;45.38;18.42;;;0.60;99.90;;;;;;5036712;28;20036;-59
2021/11/11 01:39:25;;;;;;;36.47;16.55;;;0.60;99.90;;;;;;5045992;28;20028;-58
2021/11/11 01:41:51;;;;;;;32.83;17.33;;;0.60;99.90;;;;;;5048958;28;20374;-59
2021/11/11 01:44:18;;;;;;;35.03;17.88;;;0.50;99.90;;;;;;5044508;28;20518;-56
2021/11/11 01:46:44;;;;;;;35.30;16.13;;;0.50;99.90;;;;;;5045634;28;20093;-60
2021/11/11 01:49:10;;;;;;;34.85;17.50;;;0.50;99.90;;;;;;5047198;28;20107;-57
2021/11/11 01:51:36;;;;;;;38.80;17.10;;;0.40;99.90;;;;;;5046661;28;20513;-54
2021/11/11 01:54:02;;;;;;;33.40;17.67;;;0.50;99.90;;;;;;5044795;28;20030;-59
2021/11/11 01:56:29;;;;;;;27.48;16.80;;;0.40;99.90;;;;;;5041798;28;20123;-57
2021/11/11 01:58:56;;;;;;;33.08;17.17;;;0.40;99.90;;;;;;5049055;28;20132;-59
2021/11/11 02:01:22;;;;;;;31.35;16.50;;;0.30;99.90;;;;;;5046235;28;20486;-59
2021/11/11 02:03:48;;;;;;;28.75;16.65;;;0.30;99.90;;;;;;5046180;28;20033;-58
2021/11/11 02:06:14;;;;;;;36.20;16.25;;;0.20;99.90;;;;;;5044355;28;20091;-59
2021/11/11 02:08:40;;;;;;;30.95;16.50;;;0.20;99.90;;;;;;5040907;28;20048;-56
2021/11/11 02:11:06;;;;;;;33.35;16.98;;;0.30;99.90;;;;;;5038693;28;20102;-57
2021/11/11 02:13:32;;;;;;;41.75;17.77;;;0.40;99.90;;;;;;5041726;28;20651;-60
2021/11/11 02:15:58;;;;;;;29.75;15.63;;;0.40;99.90;;;;;;5046035;28;20021;-57
2021/11/11 02:18:23;;;;;;;37.28;16.88;;;0.40;99.90;;;;;;5044372;28;20489;-57
2021/11/11 02:20:49;;;;;;;32.92;16.98;;;0.40;99.90;;;;;;5048683;28;20108;-58
2021/11/11 02:23:17;;;;;;;36.70;17.58;;;0.40;99.90;;;;;;5048442;28;20532;-59
2021/11/11 02:25:43;;;;;;;30.25;15.60;;;0.40;99.90;;;;;;5036735;28;20029;-62
2021/11/11 02:28:12;;;;;;;32.55;15.73;;;0.40;99.90;;;;;;5040908;28;20021;-58
2021/11/11 02:30:41;;;;;;;33.75;15.77;;;0.40;99.90;;;;;;5047786;28;20372;-58
2021/11/11 02:33:17;;;;;;;35.92;16.88;;;0.30;99.90;;;;;;5047088;28;20029;-58
2021/11/11 02:35:43;;;;;;;39.13;18.48;;;0.20;99.90;;;;;;5049669;28;20482;-50
2021/11/11 02:38:10;;;;;;;30.30;16.00;;;0.20;99.90;;;;;;5047489;28;20563;-57
2021/11/11 02:40:38;;;;;;;34.10;16.60;;;0.20;99.90;;;;;;5046933;28;20065;-59
2021/11/11 02:43:04;;;;;;;51.80;17.65;;;0.20;99.90;;;;;;5052202;28;20044;-59
2021/11/11 02:45:33;;;;;;;35.15;17.65;;;0.20;99.90;;;;;;5049554;28;20406;-57
2021/11/11 02:48:00;;;;;;;35.35;18.27;;;0.20;99.90;;;;;;5051901;28;20143;-54
2021/11/11 02:50:28;;;;;;;40.45;20.35;;;0.20;99.90;;;;;;5048420;28;20033;-53
2021/11/11 02:52:55;;;;;;;39.72;19.42;;;0.30;99.90;;;;;;5052852;28;20036;-59
2021/11/11 02:55:21;;;;;;;43.28;19.08;;;0.30;99.90;;;;;;5044454;28;20116;-56
2021/11/11 02:57:47;;;;;;;41.40;20.33;;;0.40;99.90;;;;;;5046799;28;20108;-56
2021/11/11 03:00:22;;;;;;;39.08;18.25;;;0.50;99.90;;;;;;5038674;28;20029;-59
2021/11/11 03:02:49;;;;;;;45.53;20.80;;;0.40;99.90;;;;;;5044878;28;20110;-55
2021/11/11 03:05:21;;;;;;;42.78;19.65;;;0.40;99.90;;;;;;5039085;28;20834;-56
2021/11/11 03:07:47;;;;;;;45.47;18.38;;;0.30;99.90;;;;;;5051106;28;20036;-55
2021/11/11 03:10:17;;;;;;;46.75;19.52;;;0.30;99.90;;;;;;5047339;28;20064;-57
2021/11/11 03:12:43;;;;;;;41.78;18.48;;;0.20;99.90;;;;;;5049716;28;20040;-55
2021/11/11 03:15:09;;;;;;;38.80;17.42;;;0.20;99.90;;;;;;5051631;28;20029;-56
2021/11/11 03:17:35;;;;;;;32.85;16.08;;;0.20;99.90;;;;;;5042720;28;20033;-55
2021/11/11 03:20:02;;;;;;;42.38;19.05;;;0.10;99.90;;;;;;5043848;28;20483;-59
2021/11/11 03:22:28;;;;;;;38.45;15.75;;;0.00;99.90;;;;;;5049704;28;20088;-55
2021/11/11 03:24:54;;;;;;;39.22;16.40;;;0.00;99.90;;;;;;5049379;28;20041;-54
2021/11/11 03:27:20;;;;;;;32.08;15.98;;;-0.10;99.90;;;;;;5051557;28;20040;-58
2021/11/11 03:29:49;;;;;;;39.80;18.10;;;-0.10;99.90;;;;;;5046881;28;20029;-54
2021/11/11 03:32:15;;;;;;;45.55;18.90;;;-0.10;99.90;;;;;;5051131;28;20057;-56
2021/11/11 03:34:41;;;;;;;43.05;19.98;;;-0.10;99.90;;;;;;5050467;28;20446;-53
2021/11/11 03:37:11;;;;;;;49.88;20.52;;;-0.10;99.90;;;;;;5049996;28;20029;-53
2021/11/11 03:39:37;;;;;;;47.72;20.70;;;-0.10;99.90;;;;;;5029787;28;20030;-58
2021/11/11 03:42:04;;;;;;;43.65;20.40;;;-0.20;99.90;;;;;;5053080;28;20120;-55
2021/11/11 03:44:30;;;;;;;52.50;21.23;;;-0.10;99.90;;;;;;5043684;28;20087;-57
2021/11/11 03:46:58;;;;;;;47.23;19.90;;;-0.10;99.90;;;;;;5051249;28;20048;-56
2021/11/11 03:49:23;;;;;;;49.53;20.98;;;-0.10;99.90;;;;;;5044304;28;20037;-56
2021/11/11 03:51:49;;;;;;;46.63;20.13;;;-0.10;99.90;;;;;;5046078;28;20091;-53
2021/11/11 03:54:19;;;;;;;47.75;21.67;;;-0.20;99.90;;;;;;5050620;28;20406;-52
2021/11/11 03:56:47;;;;;;;43.80;18.52;;;-0.20;99.90;;;;;;5048530;28;20090;-54
2021/11/11 03:59:13;;;;;;;43.50;19.80;;;-0.20;99.90;;;;;;5047338;28;20124;-54
2021/11/11 04:01:39;;;;;;;46.47;19.02;;;-0.20;99.90;;;;;;5045819;28;20056;-56
2021/11/11 04:04:05;;;;;;;49.45;20.10;;;-0.20;99.90;;;;;;5050373;28;20470;-50
2021/11/11 04:06:32;;;;;;;41.33;18.95;;;-0.20;99.90;;;;;;5031482;28;20025;-55
2021/11/11 04:09:01;;;;;;;40.42;18.90;;;-0.20;99.90;;;;;;5047009;28;20061;-51
2021/11/11 04:11:28;;;;;;;48.13;21.30;;;-0.20;99.90;;;;;;5047895;28;20120;-58
2021/11/11 04:13:54;;;;;;;38.57;18.83;;;-0.20;99.90;;;;;;5049542;28;20052;-60
2021/11/11 04:16:20;;;;;;;46.17;20.83;;;-0.20;99.90;;;;;;5049798;28;20483;-60
2021/11/11 04:18:46;;;;;;;59.22;22.10;;;-0.20;99.90;;;;;;5047135;28;20033;-61
2021/11/11 04:21:12;;;;;;;45.92;20.10;;;-0.20;99.90;;;;;;5038860;28;20044;-61
2021/11/11 04:23:38;;;;;;;38.53;19.65;;;-0.20;99.90;;;;;;5049927;28;20040;-59
2021/11/11 04:26:10;;;;;;;47.58;20.75;;;-0.20;99.90;;;;;;5050641;28;20060;-57
2021/11/11 04:28:47;;;;;;;47.87;22.03;;;-0.20;99.90;;;;;;5049672;28;20116;-59
2021/11/11 04:31:22;;;;;;;39.75;20.00;;;-0.20;99.90;;;;;;5050078;28;20072;-54
2021/11/11 04:33:51;;;;;;;41.27;19.67;;;-0.10;99.90;;;;;;5047331;28;20033;-59
2021/11/11 04:39:46;;;;;;;40.17;18.88;;;-0.10;99.90;;;;;;5043344;28;20095;-59
2021/11/11 04:45:14;;;;;;;36.38;17.55;;;-0.10;99.90;;;;;;5042179;28;20461;-59
2021/11/11 05:03:45;;;;;;;40.53;19.03;;;-0.40;99.90;;;;;;4988182;28;20030;-57
2021/11/11 05:06:11;;;;;;;34.33;18.20;;;-0.40;99.90;;;;;;5010634;28;20044;-58
2021/11/11 05:08:37;;;;;;;32.30;16.77;;;-0.40;99.90;;;;;;5043303;28;20028;-57
2021/11/11 05:11:03;;;;;;;33.45;18.85;;;-0.40;99.90;;;;;;5042545;28;20388;-55
2021/11/11 05:13:30;;;;;;;39.20;18.50;;;-0.50;99.90;;;;;;5041570;28;20044;-57
2021/11/11 05:15:57;;;;;;;41.87;18.10;;;-0.50;99.90;;;;;;5043559;28;20033;-56
2021/11/11 05:18:22;;;;;;;41.70;18.43;;;-0.50;99.90;;;;;;5047662;28;20055;-58
2021/11/11 05:20:48;;;;;;;43.97;17.73;;;-0.60;99.90;;;;;;5042022;28;20092;-58
2021/11/11 05:23:14;;;;;;;42.47;19.20;;;-0.60;99.90;;;;;;5044124;28;20290;-58
2021/11/11 05:25:39;;;;;;;41.00;17.93;;;-0.60;99.90;;;;;;5045478;28;20127;-60
2021/11/11 05:28:05;;;;;;;47.20;20.53;;;-0.60;99.90;;;;;;5040715;28;20087;-60
2021/11/11 05:30:32;;;;;;;42.60;20.70;;;-0.60;99.90;;;;;;5049343;28;20698;-58
2021/11/11 05:32:58;;;;;;;43.73;20.80;;;-0.50;99.90;;;;;;5044073;28;20017;-57
2021/11/11 05:35:24;;;;;;;43.27;19.83;;;-0.50;99.90;;;;;;5040962;28;20475;-59
2021/11/11 05:37:50;;;;;;;42.37;19.80;;;-0.50;99.90;;;;;;5045846;28;20032;-55
2021/11/11 05:40:17;;;;;;;41.10;20.23;;;-0.40;99.90;;;;;;5047797;28;20108;-60
2021/11/11 05:42:43;;;;;;;39.03;19.67;;;-0.40;99.90;;;;;;5037418;28;20044;-59
2021/11/11 05:45:09;;;;;;;40.10;18.17;;;-0.40;99.90;;;;;;5033572;28;20119;-59
2021/11/11 05:47:36;;;;;;;43.50;19.43;;;-0.40;99.90;;;;;;5046992;28;20033;-58
2021/11/11 05:50:02;;;;;;;37.87;18.47;;;-0.40;99.90;;;;;;5034684;28;20033;-58
2021/11/11 05:52:28;;;;;;;43.17;17.80;;;-0.40;99.90;;;;;;5044041;28;20509;-57
2021/11/11 05:54:54;;;;;;;43.43;18.97;;;-0.50;99.90;;;;;;5041854;28;20024;-60
2021/11/11 05:57:19;;;;;;;42.33;18.37;;;-0.50;99.90;;;;;;5040647;28;20035;-59
2021/11/11 05:59:45;;;;;;;34.63;17.53;;;-0.60;99.90;;;;;;5044949;28;20028;-60
2021/11/11 06:02:12;;;;;;;45.87;20.30;;;-0.60;99.90;;;;;;5041371;28;20498;-58
2021/11/11 06:04:39;;;;;;;45.97;18.77;;;-0.50;99.90;;;;;;5046866;28;20036;-59
2021/11/11 06:07:05;;;;;;;42.70;18.27;;;-0.40;99.90;;;;;;5039067;28;20477;-59
2021/11/11 06:09:31;;;;;;;42.42;19.80;;;-0.30;99.90;;;;;;5042371;28;20028;-59
2021/11/11 06:11:57;;;;;;;39.78;18.13;;;-0.30;99.90;;;;;;5046865;28;20029;-59
2021/11/11 06:14:23;;;;;;;34.37;16.33;;;-0.30;99.90;;;;;;5047657;28;20102;-57
2021/11/11 06:16:49;;;;;;;34.87;17.87;;;-0.30;99.90;;;;;;5049050;28;20032;-57
2021/11/11 06:19:15;;;;;;;35.80;16.97;;;-0.30;99.90;;;;;;5046877;28;20108;-54
2021/11/11 06:21:41;;;;;;;36.78;17.13;;;-0.40;99.90;;;;;;5044254;28;20032;-59
2021/11/11 06:24:07;;;;;;;39.60;18.50;;;-0.40;99.90;;;;;;5047292;28;20069;-60
2021/11/11 06:26:34;;;;;;;34.27;17.23;;;-0.50;99.90;;;;;;5043190;28;20036;-60
2021/11/11 06:29:01;;;;;;;42.60;18.87;;;-0.40;99.90;;;;;;5045362;28;20034;-62
2021/11/11 06:31:27;;;;;;;40.33;19.10;;;-0.40;99.90;;;;;;5050669;28;20086;-59
2021/11/11 06:33:53;;;;;;;34.53;17.73;;;-0.40;99.90;;;;;;5045946;28;20555;-61
2021/11/11 06:36:19;;;;;;;36.70;19.23;;;-0.40;99.90;;;;;;5045605;28;20219;-61
2021/11/11 06:38:44;;;;;;;41.67;18.50;;;-0.40;99.90;;;;;;5047438;28;20077;-60
2021/11/11 06:41:10;;;;;;;32.73;17.67;;;-0.50;99.90;;;;;;5045351;28;20026;-60
2021/11/11 06:43:37;;;;;;;35.00;16.30;;;-0.50;99.90;;;;;;5045304;28;20426;-57
2021/11/11 06:46:03;;;;;;;34.23;17.37;;;-0.60;99.90;;;;;;5026106;28;20072;-56
2021/11/11 06:48:29;;;;;;;35.77;18.00;;;-0.60;99.90;;;;;;5049475;28;20017;-57
2021/11/11 06:50:55;;;;;;;38.77;19.43;;;-0.50;99.90;;;;;;5048936;28;20056;-61
2021/11/11 06:53:21;;;;;;;38.87;17.60;;;-0.50;99.90;;;;;;5049876;28;20067;-56
2021/11/11 06:55:47;;;;;;;41.13;18.77;;;-0.50;99.90;;;;;;5049680;28;20021;-59
2021/11/11 06:58:15;;;;;;;47.30;20.97;;;-0.50;99.90;;;;;;5047302;28;20108;-61
2021/11/11 07:00:42;;;;;;;39.07;18.40;;;-0.50;99.90;;;;;;5046347;28;20021;-59
2021/11/11 07:03:07;;;;;;;37.13;18.50;;;-0.40;99.90;;;;;;5049932;28;20021;-58
2021/11/11 07:05:33;;;;;;;39.63;20.07;;;-0.40;99.90;;;;;;5047338;28;20375;-59
2021/11/11 07:07:59;;;;;;;44.90;18.00;;;-0.30;99.90;;;;;;5044519;28;20040;-58
2021/11/11 07:10:24;;;;;;;43.00;19.60;;;-0.30;99.90;;;;;;5043136;28;20477;-58
2021/11/11 07:12:51;;;;;;;42.87;18.47;;;-0.20;99.90;;;;;;5047673;28;20033;-59
2021/11/11 07:15:17;;;;;;;32.30;17.45;;;-0.20;99.90;;;;;;5040800;28;20143;-60
2021/11/11 07:17:44;;;;;;;37.22;17.13;;;-0.20;99.90;;;;;;5049109;28;20017;-58
2021/11/11 07:20:13;;;;;;;36.85;17.77;;;-0.10;99.90;;;;;;5043184;28;20034;-59
2021/11/11 07:22:39;;;;;;;30.05;15.60;;;0.00;99.90;;;;;;5046034;28;20032;-60
2021/11/11 07:25:07;;;;;;;32.08;15.50;;;0.00;99.90;;;;;;5047376;28;20122;-59
2021/11/11 07:27:34;;;;;;;29.98;14.85;;;0.00;99.90;;;;;;5045371;28;20086;-58
2021/11/11 07:30:02;;;;;;;27.55;14.98;;;0.10;99.90;;;;;;5043146;28;20022;-59
2021/11/11 07:32:29;;;;;;;27.88;15.52;;;0.20;99.90;;;;;;5043217;28;20102;-59
2021/11/11 07:34:54;;;;;;;38.33;18.67;;;0.20;99.90;;;;;;5037775;28;20033;-56
2021/11/11 07:37:20;;;;;;;32.30;17.75;;;0.20;99.90;;;;;;5047832;28;20399;-58
2021/11/11 07:39:45;;;;;;;29.70;15.52;;;0.20;99.90;;;;;;5045409;28;20457;-60
2021/11/11 07:42:11;;;;;;;30.17;16.27;;;0.30;99.90;;;;;;5048669;28;20466;-59
2021/11/11 07:44:37;;;;;;;34.33;16.33;;;0.30;99.90;;;;;;5024669;28;20052;-58
2021/11/11 07:47:03;;;;;;;36.35;15.70;;;0.40;99.90;;;;;;5046380;28;20091;-59
2021/11/11 07:49:28;;;;;;;31.27;15.48;;;0.40;99.90;;;;;;5041996;28;20025;-57
2021/11/11 07:51:54;;;;;;;32.25;15.55;;;0.40;99.90;;;;;;5038013;28;20364;-60
2021/11/11 07:54:19;;;;;;;30.20;15.05;;;0.50;99.90;;;;;;5049656;28;20461;-58
2021/11/11 07:56:45;;;;;;;32.50;16.92;;;0.50;99.90;;;;;;5044567;28;20083;-58
2021/11/11 07:59:12;;;;;;;33.00;16.35;;;0.60;99.90;;;;;;5044134;28;20032;-55
2021/11/11 08:01:38;;;;;;;30.35;16.33;;;0.60;99.90;;;;;;5042523;28;20025;-57
2021/11/11 08:04:04;;;;;;;30.48;14.85;;;0.70;99.90;;;;;;5041266;28;20049;-50
2021/11/11 08:06:29;;;;;;;27.90;14.75;;;0.80;99.90;;;;;;5048747;28;20033;-51
2021/11/11 08:08:55;;;;;;;28.33;14.05;;;0.80;99.90;;;;;;5042805;28;20103;-59
2021/11/11 08:11:21;;;;;;;28.30;13.73;;;0.90;99.90;;;;;;5050934;28;20063;-59
2021/11/11 08:13:49;;;;;;;29.95;14.23;;;0.90;99.90;;;;;;5044471;28;20068;-52
2021/11/11 08:16:15;;;;;;;25.73;14.25;;;0.90;99.90;;;;;;5044200;28;20112;-55
2021/11/11 08:18:40;;;;;;;33.22;14.20;;;0.90;99.90;;;;;;5045161;28;20107;-54
2021/11/11 08:21:06;;;;;;;30.15;13.43;;;1.00;99.90;;;;;;5045045;28;20036;-54
2021/11/11 08:23:32;;;;;;;39.35;14.40;;;1.00;99.90;;;;;;5048215;28;20025;-51
2021/11/11 08:26:03;;;;;;;26.92;14.63;;;1.10;99.90;;;;;;5041907;28;20021;-54
2021/11/11 08:28:29;;;;;;;27.33;12.88;;;1.10;99.90;;;;;;5048045;28;20021;-57
2021/11/11 08:30:54;;;;;;;26.42;13.80;;;1.20;99.90;;;;;;5046385;28;20481;-53
2021/11/11 08:33:20;;;;;;;21.60;12.45;;;1.20;99.90;;;;;;5045199;28;20017;-52
2021/11/11 08:35:47;;;;;;;33.55;14.38;;;1.30;99.90;;;;;;5047271;28;20021;-55
2021/11/11 08:38:13;;;;;;;28.58;13.40;;;1.40;99.90;;;;;;5043398;28;20490;-55
2021/11/11 08:40:40;;;;;;;28.38;15.07;;;1.40;99.90;;;;;;5041366;28;20044;-58
2021/11/11 08:43:06;;;;;;;30.67;14.30;;;1.40;99.90;;;;;;5044455;28;20079;-58
2021/11/11 08:45:32;;;;;;;24.55;14.23;;;1.50;99.90;;;;;;5030304;28;20037;-57
2021/11/11 08:48:01;;;;;;;26.80;14.27;;;1.50;99.90;;;;;;5046775;28;20025;-59
2021/11/11 08:50:30;;;;;;;29.48;14.15;;;1.50;99.90;;;;;;5047924;28;20028;-57
2021/11/11 08:53:00;;;;;;;24.90;14.07;;;1.60;99.90;;;;;;5045343;28;20491;-56
2021/11/11 08:55:30;;;;;;;28.85;14.75;;;1.70;99.90;;;;;;5044747;28;20029;-55
2021/11/11 08:57:56;;;;;;;30.17;15.05;;;1.70;99.90;;;;;;5049633;28;20116;-58
2021/11/11 09:00:24;;;;;;;28.52;15.20;;;1.80;99.90;;;;;;5047691;28;20084;-57
2021/11/11 09:02:54;;;;;;;32.35;16.00;;;1.90;99.90;;;;;;5047702;28;20027;-58
2021/11/11 09:05:22;;;;;;;32.55;15.90;;;1.90;99.90;;;;;;5048467;28;20025;-59
2021/11/11 09:07:48;;;;;;;31.00;15.23;;;2.00;99.90;;;;;;5049497;28;20305;-59
2021/11/11 09:10:18;;;;;;;24.08;14.02;;;2.10;99.90;;;;;;5045298;28;20067;-59
2021/11/11 09:12:44;;;;;;;27.38;14.77;;;2.10;99.90;;;;;;5048099;28;20334;-59
2021/11/11 09:15:12;;;;;;;28.40;15.23;;;2.20;99.90;;;;;;5042739;28;20693;-59
2021/11/11 09:17:39;;;;;;;28.05;15.43;;;2.30;99.90;;;;;;5045697;28;20513;-59
2021/11/11 09:20:07;;;;;;;28.13;14.60;;;2.40;99.90;;;;;;5046458;28;20032;-58
2021/11/11 09:22:34;;;;;;;77.80;35.25;;;2.60;99.90;;;;;;5047306;28;20100;-59
2021/11/11 09:25:01;;;;;;;105.35;49.22;;;2.80;99.90;;;;;;5046010;28;20096;-58
2021/11/11 09:27:26;;;;;;;62.85;30.65;;;3.10;99.90;;;;;;5048022;28;20033;-58
2021/11/11 09:29:53;;;;;;;27.23;15.65;;;3.30;99.90;;;;;;5047323;28;20080;-58
2021/11/11 09:32:19;;;;;;;62.85;30.98;;;3.70;99.90;;;;;;5046082;28;20078;-60
2021/11/11 09:34:45;;;;;;;130.93;56.13;;;4.00;99.90;;;;;;5046484;28;20553;-58
2021/11/11 09:37:10;;;;;;;25.50;13.05;;;4.10;99.90;;;;;;5048035;28;20029;-59
2021/11/11 09:39:36;;;;;;;22.92;13.35;;;4.20;99.90;;;;;;5046374;28;20082;-56
2021/11/11 09:42:02;;;;;;;107.82;61.33;;;4.30;99.90;;;;;;5048095;28;20071;-58
2021/11/11 09:44:28;;;;;;;26.50;15.18;;;4.20;99.90;;;;;;5049097;28;20028;-54
2021/11/11 09:46:54;;;;;;;21.55;14.57;;;4.40;99.90;;;;;;5034207;28;20060;-59
2021/11/11 09:49:21;;;;;;;23.63;13.98;;;4.30;99.90;;;;;;5050038;28;20033;-59
2021/11/11 09:51:48;;;;;;;23.13;12.13;;;4.30;99.90;;;;;;5049143;28;20021;-60
2021/11/11 09:59:26;;;;;;;113.55;55.58;;;4.20;99.90;;;;;;5040747;28;20552;-59
2021/11/11 10:01:54;;;;;;;27.98;17.60;;;4.10;99.90;;;;;;5052054;28;20383;-60
2021/11/11 10:04:20;;;;;;;28.00;14.52;;;4.20;99.90;;;;;;5049266;28;20041;-60
2021/11/11 10:06:45;;;;;;;27.58;14.75;;;4.30;99.90;;;;;;5044317;28;20037;-61
2021/11/11 10:09:14;;;;;;;24.20;14.73;;;4.40;99.90;;;;;;5046564;28;20033;-59
2021/11/11 10:11:49;;;;;;;28.38;14.75;;;4.40;99.90;;;;;;5048201;28;20099;-58
2021/11/11 10:14:37;;;;;;;26.60;14.02;;;4.50;99.90;;;;;;5047336;28;20033;-59
2021/11/11 10:17:11;;;;;;;26.13;13.07;;;4.60;99.90;;;;;;5047792;28;20179;-59
2021/11/11 10:19:41;;;;;;;;;;;4.60;99.90;;;;;;5050417;28;20044;-58
2021/11/11 10:22:23;;;;;;;23.05;13.23;;;4.70;99.90;;;;;;5050345;28;20354;-57
2021/11/11 10:24:54;;;;;;;21.58;13.75;;;4.80;99.90;;;;;;5049523;28;20021;-59
2021/11/11 10:30:08;;;;;;;27.30;13.48;;;4.90;99.90;;;;;;5049673;28;20033;-57
2021/11/11 10:32:40;;;;;;;24.45;13.30;;;4.90;99.90;;;;;;5049254;28;20060;-58
2021/11/11 10:35:17;;;;;;;28.02;14.85;;;5.00;99.90;;;;;;5050326;28;20037;-60
2021/11/11 10:38:09;;;;;;;28.88;15.30;;;5.10;99.90;;;;;;5046874;28;20538;-61
2021/11/11 10:40:41;;;;;;;26.80;14.07;;;5.10;99.90;;;;;;5048984;28;20060;-56
2021/11/11 10:43:10;;;;;;;22.38;14.13;;;5.20;99.90;;;;;;5044679;28;20090;-58
2021/11/11 10:45:40;;;;;;;27.75;15.55;;;5.30;99.90;;;;;;5024520;28;20072;-59
2021/11/11 10:48:11;;;;;;;29.88;15.15;;;5.40;99.90;;;;;;5044093;28;20719;-61
2021/11/11 10:50:40;;;;;;;29.08;16.90;;;5.40;99.90;;;;;;5040487;28;20025;-58
2021/11/11 10:53:10;;;;;;;32.28;15.45;;;5.50;99.90;;;;;;5044054;28;20092;-59
2021/11/11 10:55:41;;;;;;;28.63;14.55;;;5.60;99.90;;;;;;5048691;28;20402;-59
2021/11/11 10:58:11;;;;;;;24.40;13.00;;;5.60;99.90;;;;;;5047661;28;20456;-59
2021/11/11 11:00:48;;;;;;;27.98;14.63;;;5.60;99.90;;;;;;5043581;28;20036;-58
2021/11/11 11:03:21;;;;;;;27.45;15.35;;;5.70;99.90;;;;;;5048436;28;20025;-56
2021/11/11 11:05:50;;;;;;;27.58;13.75;;;5.70;99.90;;;;;;5049129;28;20067;-58
2021/11/11 11:08:26;;;;;;;31.92;15.07;;;5.70;99.90;;;;;;5047138;28;20033;-59
2021/11/11 11:10:56;;;;;;;25.85;14.93;;;5.70;99.90;;;;;;5049463;28;20075;-58
2021/11/11 11:13:25;;;;;;;26.63;14.57;;;5.70;99.90;;;;;;5051423;28;20642;-59
2021/11/11 11:16:03;;;;;;;24.50;14.57;;;5.80;99.90;;;;;;5047221;28;20112;-59
2021/11/11 11:18:37;;;;;;;25.98;15.68;;;5.70;99.90;;;;;;5050761;28;20060;-56
2021/11/11 11:21:58;;;;;;;24.98;14.35;;;5.80;99.90;;;;;;5042888;28;20513;-60
2021/11/11 11:24:31;;;;;;;25.40;14.68;;;5.90;99.90;;;;;;5041387;28;20040;-59
2021/11/11 11:27:03;;;;;;;27.58;16.95;;;5.90;99.90;;;;;;5044090;28;20025;-58
2021/11/11 11:29:35;;;;;;;24.83;14.15;;;6.00;99.90;;;;;;5048127;28;20047;-61
2021/11/11 11:32:17;;;;;;;28.75;17.15;;;6.10;99.90;;;;;;5049877;28;20502;-61
2021/11/11 11:34:49;;;;;;;27.30;15.20;;;6.10;99.90;;;;;;5041245;28;20108;-59
2021/11/11 11:37:17;;;;;;;22.65;14.15;;;6.20;99.90;;;;;;5041702;28;20183;-58
2021/11/11 11:39:44;;;;;;;26.38;14.90;;;6.20;99.90;;;;;;5040485;28;20028;-58
2021/11/11 11:42:16;;;;;;;21.02;13.07;;;6.30;99.90;;;;;;5043864;28;20564;-59
2021/11/11 11:44:48;;;;;;;32.33;19.98;;;6.40;99.90;;;;;;5050097;28;20028;-60
2021/11/11 11:50:00;;;;;;;45.40;25.33;;;6.40;99.90;;;;;;5049986;28;20086;-58
2021/11/11 11:52:28;;;;;;;29.23;14.65;;;6.40;99.90;;;;;;5048346;28;20029;-59
2021/11/11 11:57:34;;;;;;;32.42;15.82;;;6.40;99.90;;;;;;5048046;28;20070;-59
2021/11/11 12:00:07;;;;;;;31.98;16.20;;;6.40;99.90;;;;;;5048564;28;20482;-60
2021/11/11 12:02:46;;;;;;;27.92;15.68;;;6.40;99.90;;;;;;5049089;28;20017;-59
2021/11/11 12:40:32;;;;;;;35.05;17.88;;;6.70;99.90;;;;;;5045940;28;20071;-59
2021/11/11 12:43:12;;;;;;;28.33;17.30;;;6.70;99.90;;;;;;5041173;28;20029;-59
2021/11/11 12:45:38;;;;;;;27.23;16.42;;;6.80;99.90;;;;;;5039677;28;20037;-60
2021/11/11 12:48:09;;;;;;;31.73;16.40;;;6.80;99.90;;;;;;5041254;28;20107;-61
2021/11/11 12:50:44;;;;;;;25.33;16.00;;;6.80;99.90;;;;;;5044206;28;20475;-59
2021/11/11 12:53:13;;;;;;;34.17;16.60;;;6.80;99.90;;;;;;5043588;28;20061;-60
2021/11/11 12:55:57;;;;;;;28.25;16.80;;;6.90;99.90;;;;;;5041583;28;20084;-61
2021/11/11 12:58:52;;;;;;;26.08;15.48;;;6.90;99.90;;;;;;5037807;28;20028;-59
2021/11/11 13:01:20;;;;;;;;;;;6.90;99.90;;;;;;5044641;28;20029;-59
2021/11/11 13:04:01;;;;;;;30.75;17.02;;;7.00;99.90;;;;;;5044062;28;19958;-59
2021/11/11 13:06:33;;;;;;;29.30;17.10;;;7.00;99.90;;;;;;5044452;28;20052;-59
2021/11/11 13:09:04;;;;;;;26.80;16.15;;;7.00;99.90;;;;;;5047174;28;20921;-60
2021/11/11 13:11:31;;;;;;;27.45;15.30;;;7.10;99.90;;;;;;5044506;28;20025;-61
2021/11/11 13:14:07;;;;;;;28.25;16.33;;;7.10;99.90;;;;;;5045321;28;20021;-60
2021/11/11 13:16:33;;;;;;;24.70;13.95;;;7.10;99.90;;;;;;5042300;28;20025;-60
2021/11/11 13:19:03;;;;;;;24.52;14.00;;;7.20;99.90;;;;;;5044522;28;20536;-60
2021/11/11 13:24:50;;;;;;;23.92;14.23;;;7.40;99.90;;;;;;5041799;28;20032;-59
2021/11/11 16:24:07;;;;;;;39.30;19.67;;;4.20;99.90;;;;;;5045500;28;20074;-60
2021/11/11 16:26:33;;;;;;;;;;;4.20;99.90;;;;;;5042811;28;20554;-59
2021/11/11 16:29:00;;;;;;;36.72;20.17;;;4.30;99.90;;;;;;5040776;28;19917;-60
2021/11/11 16:31:27;;;;;;;42.78;20.95;;;4.20;99.90;;;;;;5044141;28;20094;-60
2021/11/11 16:33:53;;;;;;;35.97;20.25;;;4.20;99.90;;;;;;5048750;28;20048;-57
2021/11/11 16:36:20;;;;;;;132.60;56.85;;;4.20;99.90;;;;;;5049385;28;20021;-61
2021/11/11 16:38:48;;;;;;;116.05;50.75;;;4.20;99.90;;;;;;5044489;28;20402;-55
2021/11/11 16:41:15;;;;;;;99.15;44.70;;;4.10;99.90;;;;;;5044011;28;20026;-59
2021/11/11 16:43:41;;;;;;;98.03;44.22;;;4.10;99.90;;;;;;5044866;28;20159;-58
2021/11/11 16:46:07;;;;;;;168.23;77.43;;;4.10;99.90;;;;;;5045047;28;20038;-60
2021/11/11 16:48:36;;;;;;;303.73;124.03;;;4.00;99.90;;;;;;5047055;28;20032;-57
2021/11/11 16:51:04;;;;;;;193.68;82.25;;;3.90;99.90;;;;;;5050168;28;20024;-60